Welcome to Des Moines Iowa Weather. I am an independent private personal weather station on the Northwest Side of Des Moines, Iowa. Just East of Windsor Heights and just West of Glendale . This site is also mobile friendly.

There are no active watches, warnings or advisories


Visit our other weather sites:

Historical Data

Weather Station Setup



Weather Underground History page Text

Daily Summary for June 15, 2017 Units:  English    Metric   Both
« Previous Day
Next Day »
Daily Weekly Monthly Yearly Custom
  High: Low: Average:
Temperature: 96.7 °F 66.4 °F 80.6 °F
Dew Point: 69.0 °F 60.0 °F 65.8 °F
Humidity: 96 % 30 % 65 %
Wind Speed: 5.0 mph 0.0 mph 0.3 mph
Wind Gust: 8.0 mph - -
Wind:- - SSE
Pressure: 29.83 in 29.64 in -
Precipitation: 0.29 in    
Historical Graphs
 
 
Tabular Data for June 15, 2017
Time Temperature Dew Point Pressure Wind Wind Speed Wind Gust Humidity Rainfall Rate (Hourly)
00:08 73.0 °F 68.0 °F 29.76 in Calm     84 % 0.00 in
00:23 72.6 °F 68.0 °F 29.75 in Calm     85 % 0.00 in
00:38 72.3 °F 68.0 °F 29.75 in Calm     86 % 0.00 in
00:53 72.0 °F 68.0 °F 29.74 in Calm     86 % 0.00 in
01:08 71.6 °F 68.0 °F 29.75 in Calm     87 % 0.00 in
01:23 71.3 °F 68.0 °F 29.75 in Calm     88 % 0.00 in
01:38 71.2 °F 68.0 °F 29.76 in Calm     89 % 0.00 in
01:53 70.8 °F 68.0 °F 29.75 in Calm     89 % 0.00 in
02:08 70.6 °F 68.0 °F 29.77 in Calm     90 % 0.00 in
02:23 70.3 °F 67.0 °F 29.76 in Calm     90 % 0.00 in
02:39 70.1 °F 67.0 °F 29.76 in Calm     90 % 0.00 in
02:54 69.8 °F 67.0 °F 29.75 in Calm     91 % 0.00 in
03:08 69.6 °F 67.0 °F 29.75 in Calm     91 % 0.00 in
03:24 69.3 °F 67.0 °F 29.76 in Calm     91 % 0.00 in
03:39 69.1 °F 66.0 °F 29.76 in Calm     91 % 0.00 in
03:54 68.9 °F 66.0 °F 29.76 in Calm     91 % 0.00 in
04:09 68.7 °F 66.0 °F 29.75 in Calm     92 % 0.00 in
04:24 68.5 °F 66.0 °F 29.75 in Calm     92 % 0.00 in
04:39 68.1 °F 66.0 °F 29.75 in Calm     92 % 0.00 in
04:54 67.8 °F 66.0 °F 29.75 in Calm     92 % 0.00 in
05:09 67.4 °F 65.0 °F 29.77 in Calm     92 % 0.00 in
05:24 67.0 °F 65.0 °F 29.77 in Calm     92 % 0.00 in
05:39 66.8 °F 65.0 °F 29.78 in Calm     92 % 0.00 in
05:54 66.6 °F 65.0 °F 29.79 in Calm     93 % 0.00 in
06:09 66.5 °F 65.0 °F 29.79 in Calm     93 % 0.00 in
06:24 66.5 °F 65.0 °F 29.80 in Calm     93 % 0.00 in
06:39 66.4 °F 64.0 °F 29.80 in Calm     93 % 0.00 in
06:54 66.5 °F 65.0 °F 29.80 in Calm     94 % 0.00 in
07:09 66.8 °F 65.0 °F 29.80 in Calm     94 % 0.00 in
07:24 67.2 °F 66.0 °F 29.80 in Calm     95 % 0.00 in
07:39 68.5 °F 67.0 °F 29.80 in Calm     95 % 0.00 in
07:54 68.9 °F 68.0 °F 29.80 in Calm     95 % 0.00 in
08:09 69.7 °F 69.0 °F 29.82 in SSW 1.0 mph 1.0 mph 96 % 0.00 in
08:24 70.4 °F 69.0 °F 29.82 in Calm   2.0 mph 95 % 0.00 in
08:39 71.0 °F 69.0 °F 29.83 in Calm   1.0 mph 94 % 0.00 in
08:54 72.0 °F 68.0 °F 29.83 in Calm   4.0 mph 88 % 0.00 in
09:09 73.7 °F 67.0 °F 29.83 in Calm   3.0 mph 80 % 0.00 in
09:24 75.5 °F 68.0 °F 29.83 in Calm   3.0 mph 78 % 0.00 in
09:40 76.6 °F 69.0 °F 29.83 in Calm   1.0 mph 76 % 0.00 in
09:55 77.6 °F 68.0 °F 29.83 in Calm   2.0 mph 73 % 0.00 in
10:10 78.7 °F 69.0 °F 29.82 in Calm   3.0 mph 71 % 0.00 in
10:25 79.9 °F 66.0 °F 29.82 in Calm   3.0 mph 63 % 0.00 in
10:55 83.5 °F 67.0 °F 29.81 in SSW 2.0 mph 5.0 mph 57 % 0.00 in
11:10 85.1 °F 67.0 °F 29.81 in Calm   5.0 mph 54 % 0.00 in
11:25 86.5 °F 66.0 °F 29.81 in South 4.0 mph 4.0 mph 51 % 0.00 in
11:40 87.6 °F 66.0 °F 29.80 in Calm   8.0 mph 48 % 0.00 in
11:55 88.5 °F 66.0 °F 29.80 in NE 2.0 mph 4.0 mph 48 % 0.00 in
12:10 89.3 °F 66.0 °F 29.80 in Calm   5.0 mph 46 % 0.00 in
12:25 90.1 °F 62.0 °F 29.79 in Calm   3.0 mph 39 % 0.00 in
12:40 90.8 °F 66.0 °F 29.79 in SW 4.0 mph 5.0 mph 44 % 0.00 in
12:55 91.2 °F 64.0 °F 29.79 in Calm   4.0 mph 40 % 0.00 in
13:10 91.5 °F 62.0 °F 29.78 in Calm   6.0 mph 37 % 0.00 in
13:25 92.2 °F 66.0 °F 29.78 in Calm   7.0 mph 42 % 0.00 in
13:41 92.7 °F 66.0 °F 29.78 in Calm   5.0 mph 42 % 0.00 in
13:55 92.7 °F 65.0 °F 29.77 in Calm   7.0 mph 40 % 0.00 in
14:10 92.8 °F 65.0 °F 29.77 in East 2.0 mph 4.0 mph 40 % 0.00 in
14:25 93.2 °F 65.0 °F 29.77 in SW 1.0 mph 4.0 mph 39 % 0.00 in
14:41 93.8 °F 67.0 °F 29.76 in Calm   3.0 mph 42 % 0.00 in
14:56 94.3 °F 68.0 °F 29.76 in ENE 1.0 mph 6.0 mph 42 % 0.00 in
15:11 94.6 °F 66.0 °F 29.75 in Calm   5.0 mph 39 % 0.00 in
15:26 94.4 °F 64.0 °F 29.75 in Calm   5.0 mph 37 % 0.00 in
15:41 95.0 °F 66.0 °F 29.74 in South 2.0 mph 5.0 mph 39 % 0.00 in
15:56 95.1 °F 66.0 °F 29.74 in SSW 3.0 mph 7.0 mph 38 % 0.00 in
16:11 95.4 °F 63.0 °F 29.73 in Calm   4.0 mph 34 % 0.00 in
16:26 96.0 °F 61.0 °F 29.73 in Calm   8.0 mph 31 % 0.00 in
16:41 96.2 °F 60.0 °F 29.72 in Calm   5.0 mph 30 % 0.00 in
16:56 96.3 °F 63.0 °F 29.71 in Calm   1.0 mph 33 % 0.00 in
17:11 96.7 °F 65.0 °F 29.71 in East 1.0 mph 5.0 mph 35 % 0.00 in
17:26 96.6 °F 63.0 °F 29.71 in Calm   3.0 mph 33 % 0.00 in
17:41 96.1 °F 62.0 °F 29.71 in Calm   2.0 mph 32 % 0.00 in
17:56 96.0 °F 64.0 °F 29.70 in Calm   2.0 mph 35 % 0.00 in
18:11 95.9 °F 66.0 °F 29.70 in Calm   1.0 mph 37 % 0.00 in
18:26 94.7 °F 65.0 °F 29.69 in Calm   4.0 mph 37 % 0.00 in
18:41 93.2 °F 63.0 °F 29.69 in Calm   2.0 mph 37 % 0.00 in
18:56 92.1 °F 65.0 °F 29.67 in Calm     40 % 0.00 in
19:11 91.0 °F 64.0 °F 29.67 in Calm     41 % 0.00 in
19:26 90.1 °F 64.0 °F 29.67 in Calm     42 % 0.00 in
19:41 89.1 °F 63.0 °F 29.67 in Calm   1.0 mph 42 % 0.00 in
19:56 88.4 °F 64.0 °F 29.67 in Calm     44 % 0.00 in
20:11 87.8 °F 65.0 °F 29.67 in Calm     46 % 0.00 in
20:26 87.1 °F 65.0 °F 29.67 in Calm     48 % 0.00 in
20:41 86.2 °F 65.0 °F 29.66 in Calm     50 % 0.00 in
20:56 85.1 °F 65.0 °F 29.64 in Calm     52 % 0.00 in
21:11 84.3 °F 65.0 °F 29.65 in Calm     53 % 0.00 in
21:26 83.5 °F 66.0 °F 29.66 in Calm     55 % 0.00 in
21:41 82.9 °F 66.0 °F 29.66 in Calm     56 % 0.00 in
21:56 82.3 °F 65.0 °F 29.70 in South 5.0 mph 8.0 mph 57 % 0.00 in
22:11 80.7 °F 66.0 °F 29.68 in Calm   5.0 mph 61 % 0.00 in
22:26 79.2 °F 63.0 °F 29.69 in Calm   4.0 mph 58 % 0.00 in
22:41 78.1 °F 63.0 °F 29.68 in Calm   2.0 mph 60 % 0.00 in
22:56 76.9 °F 67.0 °F 29.75 in Calm   3.0 mph 71 % 0.10 in
23:11 74.3 °F 67.0 °F 29.77 in Calm   4.0 mph 78 % 0.16 in
23:26 72.5 °F 67.0 °F 29.78 in Calm   2.0 mph 82 % 0.28 in
23:41 71.4 °F 67.0 °F 29.76 in Calm   1.0 mph 85 % 0.29 in
23:56 70.8 °F 67.0 °F 29.76 in Calm     87 % 0.19 in
Des Moines Weather and Climate
Compliments of Weather Underground - 3 mb

Script developed by  Jim McMurry - jmcmurry@mwt.net Adapted for the template by  Wim van der Kuil - Leuven-Template.eu

You find our weather info also at:

Weather Underground

Equipment we use:

Weather-station
Davis VP2 Plus

Weather-program
Davis Weatherlink.Com

Weather-server
iMac (Retina 4K, 21.5-inch, Late 2015)

Provider
Hostmonster.com

Davis VP2 Plus

Davis Weatherlink.Com

iMac (Retina 4K, 21.5-inch, Late 2015)

Hostmonster.com